sensor_id;sensor_type;location;lat;lon;timestamp;P1;durP1;ratioP1;P2;durP2;ratioP2
59109;SDS011;44895;47.438;18.978;2023-12-20T00:01:13;47.60;;;23.50;;
59109;SDS011;44895;47.438;18.978;2023-12-20T00:04:17;43.17;;;21.38;;
59109;SDS011;44895;47.438;18.978;2023-12-20T00:07:20;57.83;;;23.95;;
59109;SDS011;44895;47.438;18.978;2023-12-20T00:10:24;56.90;;;25.95;;
59109;SDS011;44895;47.438;18.978;2023-12-20T00:13:28;36.28;;;21.90;;
59109;SDS011;44895;47.438;18.978;2023-12-20T00:16:32;40.05;;;21.17;;
59109;SDS011;44895;47.438;18.978;2023-12-20T00:19:36;44.13;;;23.05;;
59109;SDS011;44895;47.438;18.978;2023-12-20T00:22:39;38.63;;;21.67;;
59109;SDS011;44895;47.438;18.978;2023-12-20T00:25:43;41.63;;;22.25;;
59109;SDS011;44895;47.438;18.978;2023-12-20T00:28:47;56.50;;;23.85;;
59109;SDS011;44895;47.438;18.978;2023-12-20T00:31:51;42.33;;;21.50;;
59109;SDS011;44895;47.438;18.978;2023-12-20T00:34:55;35.33;;;18.83;;
59109;SDS011;44895;47.438;18.978;2023-12-20T00:37:59;39.00;;;22.25;;
59109;SDS011;44895;47.438;18.978;2023-12-20T00:41:03;40.47;;;23.60;;
59109;SDS011;44895;47.438;18.978;2023-12-20T00:44:06;46.92;;;26.45;;
59109;SDS011;44895;47.438;18.978;2023-12-20T00:47:10;46.95;;;26.38;;
59109;SDS011;44895;47.438;18.978;2023-12-20T00:50:14;62.85;;;26.15;;
59109;SDS011;44895;47.438;18.978;2023-12-20T00:53:18;41.25;;;20.83;;
59109;SDS011;44895;47.438;18.978;2023-12-20T00:56:22;44.63;;;22.48;;
59109;SDS011;44895;47.438;18.978;2023-12-20T00:59:27;45.55;;;21.58;;
59109;SDS011;44895;47.438;18.978;2023-12-20T01:02:31;40.58;;;20.02;;
59109;SDS011;44895;47.438;18.978;2023-12-20T01:05:35;61.03;;;25.85;;
59109;SDS011;44895;47.438;18.978;2023-12-20T01:08:38;54.80;;;22.83;;
59109;SDS011;44895;47.438;18.978;2023-12-20T01:11:43;39.05;;;21.23;;
59109;SDS011;44895;47.438;18.978;2023-12-20T01:14:47;45.20;;;22.85;;
59109;SDS011;44895;47.438;18.978;2023-12-20T01:17:51;65.00;;;27.17;;
59109;SDS011;44895;47.438;18.978;2023-12-20T01:20:55;59.58;;;22.02;;
59109;SDS011;44895;47.438;18.978;2023-12-20T01:23:59;42.15;;;22.52;;
59109;SDS011;44895;47.438;18.978;2023-12-20T01:27:03;46.83;;;25.30;;
59109;SDS011;44895;47.438;18.978;2023-12-20T01:30:08;58.65;;;23.42;;
59109;SDS011;44895;47.438;18.978;2023-12-20T01:33:12;44.15;;;22.33;;
59109;SDS011;44895;47.438;18.978;2023-12-20T01:36:16;40.08;;;20.58;;
59109;SDS011;44895;47.438;18.978;2023-12-20T01:39:20;43.38;;;21.20;;
59109;SDS011;44895;47.438;18.978;2023-12-20T01:42:24;45.58;;;24.55;;
59109;SDS011;44895;47.438;18.978;2023-12-20T01:45:28;49.33;;;25.60;;
59109;SDS011;44895;47.438;18.978;2023-12-20T01:48:32;57.60;;;25.70;;
59109;SDS011;44895;47.438;18.978;2023-12-20T01:51:36;39.33;;;21.75;;
59109;SDS011;44895;47.438;18.978;2023-12-20T01:54:41;49.00;;;23.20;;
59109;SDS011;44895;47.438;18.978;2023-12-20T01:57:46;42.33;;;21.20;;
59109;SDS011;44895;47.438;18.978;2023-12-20T02:00:51;50.55;;;25.48;;
59109;SDS011;44895;47.438;18.978;2023-12-20T02:03:55;43.97;;;24.80;;
59109;SDS011;44895;47.438;18.978;2023-12-20T02:07:00;47.97;;;22.42;;
59109;SDS011;44895;47.438;18.978;2023-12-20T02:10:06;46.00;;;23.98;;
59109;SDS011;44895;47.438;18.978;2023-12-20T02:13:10;40.08;;;23.25;;
59109;SDS011;44895;47.438;18.978;2023-12-20T02:16:14;48.00;;;22.15;;
59109;SDS011;44895;47.438;18.978;2023-12-20T02:19:18;43.35;;;24.38;;
59109;SDS011;44895;47.438;18.978;2023-12-20T02:22:23;62.63;;;24.08;;
59109;SDS011;44895;47.438;18.978;2023-12-20T02:25:27;53.38;;;27.35;;
59109;SDS011;44895;47.438;18.978;2023-12-20T02:28:31;41.63;;;24.33;;
59109;SDS011;44895;47.438;18.978;2023-12-20T02:31:36;46.10;;;24.83;;
59109;SDS011;44895;47.438;18.978;2023-12-20T02:34:40;75.22;;;28.35;;
59109;SDS011;44895;47.438;18.978;2023-12-20T02:37:43;52.83;;;26.30;;
59109;SDS011;44895;47.438;18.978;2023-12-20T02:40:47;50.22;;;24.15;;
59109;SDS011;44895;47.438;18.978;2023-12-20T02:43:51;51.05;;;26.58;;
59109;SDS011;44895;47.438;18.978;2023-12-20T02:46:55;84.43;;;29.40;;
59109;SDS011;44895;47.438;18.978;2023-12-20T02:49:58;53.92;;;24.63;;
59109;SDS011;44895;47.438;18.978;2023-12-20T02:53:02;69.82;;;26.00;;
59109;SDS011;44895;47.438;18.978;2023-12-20T02:56:06;47.10;;;26.30;;
59109;SDS011;44895;47.438;18.978;2023-12-20T02:59:10;44.00;;;22.70;;
59109;SDS011;44895;47.438;18.978;2023-12-20T03:02:14;44.90;;;24.02;;
59109;SDS011;44895;47.438;18.978;2023-12-20T03:05:18;56.95;;;25.25;;
59109;SDS011;44895;47.438;18.978;2023-12-20T03:08:23;64.95;;;23.13;;
59109;SDS011;44895;47.438;18.978;2023-12-20T03:11:27;55.40;;;26.35;;
59109;SDS011;44895;47.438;18.978;2023-12-20T03:14:32;43.63;;;24.05;;
59109;SDS011;44895;47.438;18.978;2023-12-20T03:17:36;55.53;;;26.35;;
59109;SDS011;44895;47.438;18.978;2023-12-20T03:20:40;76.43;;;27.90;;
59109;SDS011;44895;47.438;18.978;2023-12-20T03:23:45;49.42;;;24.02;;
59109;SDS011;44895;47.438;18.978;2023-12-20T03:26:49;77.43;;;25.10;;
59109;SDS011;44895;47.438;18.978;2023-12-20T03:29:53;53.50;;;23.20;;
59109;SDS011;44895;47.438;18.978;2023-12-20T03:32:57;42.05;;;22.40;;
59109;SDS011;44895;47.438;18.978;2023-12-20T03:36:01;42.05;;;22.30;;
59109;SDS011;44895;47.438;18.978;2023-12-20T03:39:05;43.30;;;23.98;;
59109;SDS011;44895;47.438;18.978;2023-12-20T03:42:09;41.25;;;22.13;;
59109;SDS011;44895;47.438;18.978;2023-12-20T03:45:12;42.97;;;23.33;;
59109;SDS011;44895;47.438;18.978;2023-12-20T03:48:16;51.83;;;25.52;;
59109;SDS011;44895;47.438;18.978;2023-12-20T03:51:20;36.55;;;21.23;;
59109;SDS011;44895;47.438;18.978;2023-12-20T03:54:24;39.08;;;23.70;;
59109;SDS011;44895;47.438;18.978;2023-12-20T03:57:28;56.20;;;25.98;;
59109;SDS011;44895;47.438;18.978;2023-12-20T04:00:31;42.92;;;23.40;;
59109;SDS011;44895;47.438;18.978;2023-12-20T04:03:35;43.13;;;23.15;;
59109;SDS011;44895;47.438;18.978;2023-12-20T04:06:39;71.40;;;27.83;;
59109;SDS011;44895;47.438;18.978;2023-12-20T04:09:43;48.78;;;24.83;;
59109;SDS011;44895;47.438;18.978;2023-12-20T04:12:48;48.50;;;25.73;;
59109;SDS011;44895;47.438;18.978;2023-12-20T04:15:51;68.50;;;29.35;;
59109;SDS011;44895;47.438;18.978;2023-12-20T04:18:55;57.88;;;24.63;;
59109;SDS011;44895;47.438;18.978;2023-12-20T04:21:59;37.03;;;21.05;;
59109;SDS011;44895;47.438;18.978;2023-12-20T04:25:03;112.45;;;30.20;;
59109;SDS011;44895;47.438;18.978;2023-12-20T04:28:07;46.80;;;23.08;;
59109;SDS011;44895;47.438;18.978;2023-12-20T04:31:11;65.68;;;25.90;;
59109;SDS011;44895;47.438;18.978;2023-12-20T04:34:16;40.85;;;22.17;;
59109;SDS011;44895;47.438;18.978;2023-12-20T04:37:19;51.00;;;21.00;;
59109;SDS011;44895;47.438;18.978;2023-12-20T04:40:23;91.63;;;28.52;;
59109;SDS011;44895;47.438;18.978;2023-12-20T04:43:27;82.25;;;26.60;;
59109;SDS011;44895;47.438;18.978;2023-12-20T04:46:31;41.22;;;23.17;;
59109;SDS011;44895;47.438;18.978;2023-12-20T04:49:36;51.83;;;23.63;;
59109;SDS011;44895;47.438;18.978;2023-12-20T04:52:39;38.50;;;23.05;;
59109;SDS011;44895;47.438;18.978;2023-12-20T04:55:43;39.17;;;19.67;;
59109;SDS011;44895;47.438;18.978;2023-12-20T04:58:47;39.10;;;20.38;;
59109;SDS011;44895;47.438;18.978;2023-12-20T05:01:52;47.67;;;21.73;;
59109;SDS011;44895;47.438;18.978;2023-12-20T05:04:56;49.72;;;21.02;;
59109;SDS011;44895;47.438;18.978;2023-12-20T05:08:00;34.28;;;21.17;;
59109;SDS011;44895;47.438;18.978;2023-12-20T05:11:04;45.78;;;25.58;;
59109;SDS011;44895;47.438;18.978;2023-12-20T05:14:08;70.70;;;25.25;;
59109;SDS011;44895;47.438;18.978;2023-12-20T05:17:13;58.63;;;27.00;;
59109;SDS011;44895;47.438;18.978;2023-12-20T05:20:17;51.60;;;24.08;;
59109;SDS011;44895;47.438;18.978;2023-12-20T05:23:20;39.60;;;19.02;;
59109;SDS011;44895;47.438;18.978;2023-12-20T05:26:24;58.38;;;23.02;;
59109;SDS011;44895;47.438;18.978;2023-12-20T05:29:28;43.30;;;22.15;;
59109;SDS011;44895;47.438;18.978;2023-12-20T05:32:32;86.72;;;25.77;;
59109;SDS011;44895;47.438;18.978;2023-12-20T05:35:36;62.92;;;26.98;;
59109;SDS011;44895;47.438;18.978;2023-12-20T05:38:40;72.82;;;27.95;;
59109;SDS011;44895;47.438;18.978;2023-12-20T05:41:44;87.07;;;26.42;;
59109;SDS011;44895;47.438;18.978;2023-12-20T05:44:48;64.38;;;27.05;;
59109;SDS011;44895;47.438;18.978;2023-12-20T05:47:52;68.70;;;27.17;;
59109;SDS011;44895;47.438;18.978;2023-12-20T05:50:55;122.32;;;30.02;;
59109;SDS011;44895;47.438;18.978;2023-12-20T05:54:00;190.35;;;40.50;;
59109;SDS011;44895;47.438;18.978;2023-12-20T05:57:04;43.75;;;22.98;;
59109;SDS011;44895;47.438;18.978;2023-12-20T06:00:08;70.75;;;27.17;;
59109;SDS011;44895;47.438;18.978;2023-12-20T06:03:17;90.60;;;30.08;;
59109;SDS011;44895;47.438;18.978;2023-12-20T06:06:21;50.08;;;23.17;;
59109;SDS011;44895;47.438;18.978;2023-12-20T06:09:26;69.78;;;21.92;;
59109;SDS011;44895;47.438;18.978;2023-12-20T06:12:31;57.38;;;23.73;;
59109;SDS011;44895;47.438;18.978;2023-12-20T06:15:37;49.17;;;23.92;;
59109;SDS011;44895;47.438;18.978;2023-12-20T06:18:41;37.53;;;21.02;;
59109;SDS011;44895;47.438;18.978;2023-12-20T06:21:44;68.70;;;23.92;;
59109;SDS011;44895;47.438;18.978;2023-12-20T06:24:48;111.53;;;27.27;;
59109;SDS011;44895;47.438;18.978;2023-12-20T06:27:52;35.55;;;23.25;;
59109;SDS011;44895;47.438;18.978;2023-12-20T06:30:56;100.75;;;26.55;;
59109;SDS011;44895;47.438;18.978;2023-12-20T06:34:00;58.50;;;24.42;;
59109;SDS011;44895;47.438;18.978;2023-12-20T06:37:04;66.13;;;24.25;;
59109;SDS011;44895;47.438;18.978;2023-12-20T06:40:09;71.55;;;27.15;;
59109;SDS011;44895;47.438;18.978;2023-12-20T06:43:13;60.35;;;25.25;;
59109;SDS011;44895;47.438;18.978;2023-12-20T06:46:17;53.90;;;27.55;;
59109;SDS011;44895;47.438;18.978;2023-12-20T06:49:22;47.17;;;24.35;;
59109;SDS011;44895;47.438;18.978;2023-12-20T06:52:25;49.35;;;25.08;;
59109;SDS011;44895;47.438;18.978;2023-12-20T06:55:29;52.50;;;26.00;;
59109;SDS011;44895;47.438;18.978;2023-12-20T06:58:34;40.47;;;22.50;;
59109;SDS011;44895;47.438;18.978;2023-12-20T07:01:40;41.10;;;23.58;;
59109;SDS011;44895;47.438;18.978;2023-12-20T07:04:44;39.80;;;20.80;;
59109;SDS011;44895;47.438;18.978;2023-12-20T07:07:47;36.03;;;20.55;;
59109;SDS011;44895;47.438;18.978;2023-12-20T07:10:51;39.60;;;22.35;;
59109;SDS011;44895;47.438;18.978;2023-12-20T07:13:55;37.28;;;22.38;;
59109;SDS011;44895;47.438;18.978;2023-12-20T07:16:59;39.47;;;22.73;;
59109;SDS011;44895;47.438;18.978;2023-12-20T07:20:03;37.22;;;24.10;;
59109;SDS011;44895;47.438;18.978;2023-12-20T07:23:10;37.13;;;25.90;;
59109;SDS011;44895;47.438;18.978;2023-12-20T07:26:15;38.42;;;24.88;;
59109;SDS011;44895;47.438;18.978;2023-12-20T07:29:19;44.55;;;26.02;;
59109;SDS011;44895;47.438;18.978;2023-12-20T07:32:23;43.30;;;23.92;;
59109;SDS011;44895;47.438;18.978;2023-12-20T07:35:27;38.70;;;25.88;;
59109;SDS011;44895;47.438;18.978;2023-12-20T07:38:31;38.35;;;25.55;;
59109;SDS011;44895;47.438;18.978;2023-12-20T07:41:35;36.53;;;23.40;;
59109;SDS011;44895;47.438;18.978;2023-12-20T07:44:39;44.58;;;25.50;;
59109;SDS011;44895;47.438;18.978;2023-12-20T07:47:43;44.28;;;24.00;;
59109;SDS011;44895;47.438;18.978;2023-12-20T07:50:47;41.45;;;25.40;;
59109;SDS011;44895;47.438;18.978;2023-12-20T07:53:51;42.75;;;28.92;;
59109;SDS011;44895;47.438;18.978;2023-12-20T07:56:56;47.17;;;27.80;;
59109;SDS011;44895;47.438;18.978;2023-12-20T08:00:01;45.47;;;28.40;;
59109;SDS011;44895;47.438;18.978;2023-12-20T08:03:08;46.40;;;31.17;;
59109;SDS011;44895;47.438;18.978;2023-12-20T08:06:12;40.65;;;26.67;;
59109;SDS011;44895;47.438;18.978;2023-12-20T08:09:16;45.22;;;31.30;;
59109;SDS011;44895;47.438;18.978;2023-12-20T08:12:20;46.25;;;29.20;;
59109;SDS011;44895;47.438;18.978;2023-12-20T08:15:23;56.10;;;32.40;;
59109;SDS011;44895;47.438;18.978;2023-12-20T08:18:28;52.05;;;31.60;;
59109;SDS011;44895;47.438;18.978;2023-12-20T08:21:32;54.80;;;33.75;;
59109;SDS011;44895;47.438;18.978;2023-12-20T08:24:36;54.05;;;31.00;;
59109;SDS011;44895;47.438;18.978;2023-12-20T08:27:40;48.63;;;28.80;;
59109;SDS011;44895;47.438;18.978;2023-12-20T08:30:45;55.70;;;32.20;;
59109;SDS011;44895;47.438;18.978;2023-12-20T08:33:49;47.03;;;29.15;;
59109;SDS011;44895;47.438;18.978;2023-12-20T08:36:54;52.67;;;29.35;;
59109;SDS011;44895;47.438;18.978;2023-12-20T08:39:58;56.97;;;32.45;;
59109;SDS011;44895;47.438;18.978;2023-12-20T08:43:02;56.65;;;32.05;;
59109;SDS011;44895;47.438;18.978;2023-12-20T08:46:06;57.72;;;33.00;;
59109;SDS011;44895;47.438;18.978;2023-12-20T08:49:13;54.70;;;33.55;;
59109;SDS011;44895;47.438;18.978;2023-12-20T08:52:17;49.50;;;31.02;;
59109;SDS011;44895;47.438;18.978;2023-12-20T08:55:21;59.67;;;30.30;;
59109;SDS011;44895;47.438;18.978;2023-12-20T08:58:25;47.75;;;29.05;;
59109;SDS011;44895;47.438;18.978;2023-12-20T09:01:29;57.55;;;31.65;;
59109;SDS011;44895;47.438;18.978;2023-12-20T09:04:34;51.17;;;30.88;;
59109;SDS011;44895;47.438;18.978;2023-12-20T09:07:37;48.55;;;29.42;;
59109;SDS011;44895;47.438;18.978;2023-12-20T09:10:42;50.90;;;30.60;;
59109;SDS011;44895;47.438;18.978;2023-12-20T09:13:46;49.33;;;30.98;;
59109;SDS011;44895;47.438;18.978;2023-12-20T09:16:50;57.75;;;34.13;;
59109;SDS011;44895;47.438;18.978;2023-12-20T09:19:54;52.47;;;32.95;;
59109;SDS011;44895;47.438;18.978;2023-12-20T09:22:58;54.35;;;34.28;;
59109;SDS011;44895;47.438;18.978;2023-12-20T09:26:02;56.33;;;34.35;;
59109;SDS011;44895;47.438;18.978;2023-12-20T09:29:07;58.75;;;35.40;;
59109;SDS011;44895;47.438;18.978;2023-12-20T09:32:13;53.35;;;34.05;;
59109;SDS011;44895;47.438;18.978;2023-12-20T09:35:17;50.90;;;32.03;;
59109;SDS011;44895;47.438;18.978;2023-12-20T09:38:21;51.72;;;33.00;;
59109;SDS011;44895;47.438;18.978;2023-12-20T09:41:26;43.90;;;31.05;;
59109;SDS011;44895;47.438;18.978;2023-12-20T09:44:32;46.90;;;31.73;;
59109;SDS011;44895;47.438;18.978;2023-12-20T09:47:40;50.72;;;32.83;;
59109;SDS011;44895;47.438;18.978;2023-12-20T09:50:46;43.10;;;29.90;;
59109;SDS011;44895;47.438;18.978;2023-12-20T09:53:50;43.40;;;29.50;;
59109;SDS011;44895;47.438;18.978;2023-12-20T09:56:58;50.17;;;32.63;;
59109;SDS011;44895;47.438;18.978;2023-12-20T10:00:02;44.92;;;29.48;;
59109;SDS011;44895;47.438;18.978;2023-12-20T10:03:15;34.65;;;26.02;;
59109;SDS011;44895;47.438;18.978;2023-12-20T10:06:19;37.78;;;25.60;;
59109;SDS011;44895;47.438;18.978;2023-12-20T10:09:23;44.30;;;28.42;;
59109;SDS011;44895;47.438;18.978;2023-12-20T10:12:28;45.08;;;28.08;;
59109;SDS011;44895;47.438;18.978;2023-12-20T10:15:35;39.15;;;27.42;;
59109;SDS011;44895;47.438;18.978;2023-12-20T10:18:40;38.22;;;25.88;;
59109;SDS011;44895;47.438;18.978;2023-12-20T10:21:44;34.35;;;23.67;;
59109;SDS011;44895;47.438;18.978;2023-12-20T10:24:50;38.15;;;29.33;;
59109;SDS011;44895;47.438;18.978;2023-12-20T10:28:13;36.78;;;27.08;;
59109;SDS011;44895;47.438;18.978;2023-12-20T10:31:25;35.13;;;24.75;;
59109;SDS011;44895;47.438;18.978;2023-12-20T10:34:32;35.55;;;25.92;;
59109;SDS011;44895;47.438;18.978;2023-12-20T10:37:36;38.47;;;25.17;;
59109;SDS011;44895;47.438;18.978;2023-12-20T10:40:41;39.63;;;28.15;;
59109;SDS011;44895;47.438;18.978;2023-12-20T10:43:45;40.70;;;25.92;;
59109;SDS011;44895;47.438;18.978;2023-12-20T10:46:50;40.60;;;28.48;;
59109;SDS011;44895;47.438;18.978;2023-12-20T10:50:01;36.65;;;25.35;;
59109;SDS011;44895;47.438;18.978;2023-12-20T10:53:09;31.08;;;25.02;;
59109;SDS011;44895;47.438;18.978;2023-12-20T10:56:16;38.20;;;24.23;;
59109;SDS011;44895;47.438;18.978;2023-12-20T10:59:24;34.15;;;23.40;;
59109;SDS011;44895;47.438;18.978;2023-12-20T11:02:33;30.35;;;20.58;;
59109;SDS011;44895;47.438;18.978;2023-12-20T11:05:44;21.38;;;13.70;;
59109;SDS011;44895;47.438;18.978;2023-12-20T11:12:16;22.10;;;13.98;;
59109;SDS011;44895;47.438;18.978;2023-12-20T11:15:21;18.80;;;12.52;;
59109;SDS011;44895;47.438;18.978;2023-12-20T11:18:29;18.90;;;13.07;;
59109;SDS011;44895;47.438;18.978;2023-12-20T11:21:34;19.58;;;13.10;;
59109;SDS011;44895;47.438;18.978;2023-12-20T11:24:38;19.45;;;13.05;;
59109;SDS011;44895;47.438;18.978;2023-12-20T11:28:07;41.30;;;12.77;;
59109;SDS011;44895;47.438;18.978;2023-12-20T11:31:13;16.65;;;11.30;;
59109;SDS011;44895;47.438;18.978;2023-12-20T11:34:19;16.85;;;10.88;;
59109;SDS011;44895;47.438;18.978;2023-12-20T11:37:25;16.05;;;9.70;;
59109;SDS011;44895;47.438;18.978;2023-12-20T11:40:32;17.23;;;10.93;;
59109;SDS011;44895;47.438;18.978;2023-12-20T11:43:38;18.05;;;11.68;;
59109;SDS011;44895;47.438;18.978;2023-12-20T11:46:43;17.83;;;11.55;;
59109;SDS011;44895;47.438;18.978;2023-12-20T11:49:48;19.48;;;11.98;;
59109;SDS011;44895;47.438;18.978;2023-12-20T11:52:52;14.07;;;9.23;;
59109;SDS011;44895;47.438;18.978;2023-12-20T11:55:58;19.48;;;12.32;;
59109;SDS011;44895;47.438;18.978;2023-12-20T11:59:02;18.42;;;10.15;;
59109;SDS011;44895;47.438;18.978;2023-12-20T12:02:07;15.45;;;9.65;;
59109;SDS011;44895;47.438;18.978;2023-12-20T12:05:10;18.58;;;9.82;;
59109;SDS011;44895;47.438;18.978;2023-12-20T12:08:15;13.35;;;8.77;;
59109;SDS011;44895;47.438;18.978;2023-12-20T12:11:19;11.60;;;6.70;;
59109;SDS011;44895;47.438;18.978;2023-12-20T12:14:24;12.63;;;7.20;;
59109;SDS011;44895;47.438;18.978;2023-12-20T12:17:28;11.20;;;6.68;;
59109;SDS011;44895;47.438;18.978;2023-12-20T12:20:32;8.93;;;4.47;;
59109;SDS011;44895;47.438;18.978;2023-12-20T12:23:36;10.80;;;5.57;;
59109;SDS011;44895;47.438;18.978;2023-12-20T12:26:40;9.27;;;4.47;;
59109;SDS011;44895;47.438;18.978;2023-12-20T12:30:00;8.05;;;4.05;;
59109;SDS011;44895;47.438;18.978;2023-12-20T12:33:11;23.52;;;15.15;;
59109;SDS011;44895;47.438;18.978;2023-12-20T12:36:15;81.82;;;37.80;;
59109;SDS011;44895;47.438;18.978;2023-12-20T12:39:21;52.03;;;22.75;;
59109;SDS011;44895;47.438;18.978;2023-12-20T12:42:27;65.90;;;38.20;;
59109;SDS011;44895;47.438;18.978;2023-12-20T12:45:32;15.88;;;11.23;;
59109;SDS011;44895;47.438;18.978;2023-12-20T12:48:36;12.13;;;8.65;;
59109;SDS011;44895;47.438;18.978;2023-12-20T12:51:40;13.05;;;6.47;;
59109;SDS011;44895;47.438;18.978;2023-12-20T12:54:44;9.52;;;5.40;;
59109;SDS011;44895;47.438;18.978;2023-12-20T12:57:49;24.67;;;17.38;;
59109;SDS011;44895;47.438;18.978;2023-12-20T13:00:52;22.67;;;16.02;;
59109;SDS011;44895;47.438;18.978;2023-12-20T13:03:57;13.15;;;8.45;;
59109;SDS011;44895;47.438;18.978;2023-12-20T13:07:01;13.02;;;7.05;;
59109;SDS011;44895;47.438;18.978;2023-12-20T13:10:05;14.27;;;7.45;;
59109;SDS011;44895;47.438;18.978;2023-12-20T13:13:09;9.85;;;6.60;;
59109;SDS011;44895;47.438;18.978;2023-12-20T13:16:13;10.25;;;6.68;;
59109;SDS011;44895;47.438;18.978;2023-12-20T13:19:17;11.73;;;7.07;;
59109;SDS011;44895;47.438;18.978;2023-12-20T13:22:21;10.27;;;6.10;;
59109;SDS011;44895;47.438;18.978;2023-12-20T13:25:25;11.20;;;5.60;;
59109;SDS011;44895;47.438;18.978;2023-12-20T13:28:29;11.18;;;6.68;;
59109;SDS011;44895;47.438;18.978;2023-12-20T13:31:33;9.65;;;5.72;;
59109;SDS011;44895;47.438;18.978;2023-12-20T13:34:40;11.40;;;6.60;;
59109;SDS011;44895;47.438;18.978;2023-12-20T13:37:43;11.65;;;6.80;;
59109;SDS011;44895;47.438;18.978;2023-12-20T13:40:48;12.63;;;6.88;;
59109;SDS011;44895;47.438;18.978;2023-12-20T13:43:52;12.93;;;6.95;;
59109;SDS011;44895;47.438;18.978;2023-12-20T13:46:56;12.15;;;7.18;;
59109;SDS011;44895;47.438;18.978;2023-12-20T13:50:00;13.77;;;8.02;;
59109;SDS011;44895;47.438;18.978;2023-12-20T13:53:03;12.27;;;6.35;;
59109;SDS011;44895;47.438;18.978;2023-12-20T13:56:08;14.35;;;7.50;;
59109;SDS011;44895;47.438;18.978;2023-12-20T13:59:12;12.60;;;6.90;;
59109;SDS011;44895;47.438;18.978;2023-12-20T14:02:17;13.10;;;7.95;;
59109;SDS011;44895;47.438;18.978;2023-12-20T14:05:21;14.57;;;8.13;;
59109;SDS011;44895;47.438;18.978;2023-12-20T14:08:27;13.43;;;8.63;;
59109;SDS011;44895;47.438;18.978;2023-12-20T14:11:31;13.88;;;9.10;;
59109;SDS011;44895;47.438;18.978;2023-12-20T14:14:35;15.80;;;9.85;;
59109;SDS011;44895;47.438;18.978;2023-12-20T14:17:39;14.02;;;8.38;;
59109;SDS011;44895;47.438;18.978;2023-12-20T14:20:45;14.50;;;8.52;;
59109;SDS011;44895;47.438;18.978;2023-12-20T14:23:50;14.90;;;8.88;;
59109;SDS011;44895;47.438;18.978;2023-12-20T14:26:55;16.05;;;10.15;;
59109;SDS011;44895;47.438;18.978;2023-12-20T14:29:59;14.00;;;8.88;;
59109;SDS011;44895;47.438;18.978;2023-12-20T14:33:04;14.18;;;9.88;;
59109;SDS011;44895;47.438;18.978;2023-12-20T14:36:08;16.33;;;10.70;;
59109;SDS011;44895;47.438;18.978;2023-12-20T14:39:12;19.13;;;10.98;;
59109;SDS011;44895;47.438;18.978;2023-12-20T14:42:17;16.45;;;10.52;;
59109;SDS011;44895;47.438;18.978;2023-12-20T14:45:21;17.30;;;9.07;;
59109;SDS011;44895;47.438;18.978;2023-12-20T14:48:25;15.82;;;8.98;;
59109;SDS011;44895;47.438;18.978;2023-12-20T14:51:30;17.65;;;9.23;;
59109;SDS011;44895;47.438;18.978;2023-12-20T14:54:34;17.88;;;10.73;;
59109;SDS011;44895;47.438;18.978;2023-12-20T14:57:38;17.67;;;10.65;;
59109;SDS011;44895;47.438;18.978;2023-12-20T15:00:42;17.95;;;9.27;;
59109;SDS011;44895;47.438;18.978;2023-12-20T15:03:48;20.58;;;13.68;;
59109;SDS011;44895;47.438;18.978;2023-12-20T15:06:52;22.45;;;13.05;;
59109;SDS011;44895;47.438;18.978;2023-12-20T15:09:57;18.65;;;12.07;;
59109;SDS011;44895;47.438;18.978;2023-12-20T15:13:01;14.23;;;9.00;;
59109;SDS011;44895;47.438;18.978;2023-12-20T15:16:05;15.65;;;9.93;;
59109;SDS011;44895;47.438;18.978;2023-12-20T15:19:09;14.95;;;9.02;;
59109;SDS011;44895;47.438;18.978;2023-12-20T15:22:13;16.10;;;6.97;;
59109;SDS011;44895;47.438;18.978;2023-12-20T15:25:18;12.90;;;8.85;;
59109;SDS011;44895;47.438;18.978;2023-12-20T15:28:24;13.98;;;8.68;;
59109;SDS011;44895;47.438;18.978;2023-12-20T15:31:28;17.45;;;10.05;;
59109;SDS011;44895;47.438;18.978;2023-12-20T15:34:32;19.23;;;9.25;;
59109;SDS011;44895;47.438;18.978;2023-12-20T15:37:37;13.82;;;7.20;;
59109;SDS011;44895;47.438;18.978;2023-12-20T15:40:42;12.82;;;8.20;;
59109;SDS011;44895;47.438;18.978;2023-12-20T15:43:46;14.00;;;6.97;;
59109;SDS011;44895;47.438;18.978;2023-12-20T15:46:51;12.88;;;6.95;;
59109;SDS011;44895;47.438;18.978;2023-12-20T15:49:54;11.27;;;7.13;;
59109;SDS011;44895;47.438;18.978;2023-12-20T15:52:59;14.07;;;7.65;;
59109;SDS011;44895;47.438;18.978;2023-12-20T15:56:04;13.77;;;8.43;;
59109;SDS011;44895;47.438;18.978;2023-12-20T15:59:08;13.70;;;7.47;;
59109;SDS011;44895;47.438;18.978;2023-12-20T16:02:14;12.77;;;5.70;;
59109;SDS011;44895;47.438;18.978;2023-12-20T16:05:21;11.68;;;6.65;;
59109;SDS011;44895;47.438;18.978;2023-12-20T16:08:25;13.88;;;6.13;;
59109;SDS011;44895;47.438;18.978;2023-12-20T16:11:30;10.70;;;6.00;;
59109;SDS011;44895;47.438;18.978;2023-12-20T16:14:34;10.13;;;5.70;;
59109;SDS011;44895;47.438;18.978;2023-12-20T16:17:38;10.57;;;4.80;;
59109;SDS011;44895;47.438;18.978;2023-12-20T16:20:42;8.73;;;4.47;;
59109;SDS011;44895;47.438;18.978;2023-12-20T16:23:46;8.90;;;3.88;;
59109;SDS011;44895;47.438;18.978;2023-12-20T16:26:49;8.90;;;4.05;;
59109;SDS011;44895;47.438;18.978;2023-12-20T16:29:53;10.43;;;4.70;;
59109;SDS011;44895;47.438;18.978;2023-12-20T16:32:57;9.23;;;4.15;;
59109;SDS011;44895;47.438;18.978;2023-12-20T16:36:02;9.05;;;4.32;;
59109;SDS011;44895;47.438;18.978;2023-12-20T16:39:06;8.55;;;3.60;;
59109;SDS011;44895;47.438;18.978;2023-12-20T16:42:10;6.75;;;3.28;;
59109;SDS011;44895;47.438;18.978;2023-12-20T16:45:14;11.52;;;5.38;;
59109;SDS011;44895;47.438;18.978;2023-12-20T16:48:18;7.97;;;3.58;;
59109;SDS011;44895;47.438;18.978;2023-12-20T16:51:22;7.88;;;4.35;;
59109;SDS011;44895;47.438;18.978;2023-12-20T16:54:27;7.40;;;4.07;;
59109;SDS011;44895;47.438;18.978;2023-12-20T16:57:32;10.90;;;5.28;;
59109;SDS011;44895;47.438;18.978;2023-12-20T17:00:36;12.57;;;6.30;;
59109;SDS011;44895;47.438;18.978;2023-12-20T17:03:40;8.93;;;5.15;;
59109;SDS011;44895;47.438;18.978;2023-12-20T17:06:44;11.13;;;6.40;;
59109;SDS011;44895;47.438;18.978;2023-12-20T17:09:50;12.55;;;6.53;;
59109;SDS011;44895;47.438;18.978;2023-12-20T17:12:54;10.63;;;5.53;;
59109;SDS011;44895;47.438;18.978;2023-12-20T17:15:58;12.10;;;5.75;;
59109;SDS011;44895;47.438;18.978;2023-12-20T17:19:02;15.13;;;7.05;;
59109;SDS011;44895;47.438;18.978;2023-12-20T17:22:07;12.10;;;5.68;;
59109;SDS011;44895;47.438;18.978;2023-12-20T17:25:12;11.77;;;6.47;;
59109;SDS011;44895;47.438;18.978;2023-12-20T17:28:16;12.68;;;7.13;;
59109;SDS011;44895;47.438;18.978;2023-12-20T17:31:20;10.73;;;6.57;;
59109;SDS011;44895;47.438;18.978;2023-12-20T17:34:25;13.20;;;6.68;;
59109;SDS011;44895;47.438;18.978;2023-12-20T17:37:29;16.15;;;10.13;;
59109;SDS011;44895;47.438;18.978;2023-12-20T17:40:33;16.08;;;9.63;;
59109;SDS011;44895;47.438;18.978;2023-12-20T17:43:37;16.15;;;10.27;;
59109;SDS011;44895;47.438;18.978;2023-12-20T17:46:41;15.05;;;8.85;;
59109;SDS011;44895;47.438;18.978;2023-12-20T17:49:45;13.07;;;8.18;;
59109;SDS011;44895;47.438;18.978;2023-12-20T17:52:49;17.30;;;9.88;;